sensor_id;sensor_type;location;lat;lon;timestamp;temperature;humidity
5492;DHT22;2768;53.540;10.224;2022-09-20T00:04:33;13.30;99.90
5492;DHT22;2768;53.540;10.224;2022-09-20T00:10:26;13.30;99.90
5492;DHT22;2768;53.540;10.224;2022-09-20T00:16:25;13.30;99.90
5492;DHT22;2768;53.540;10.224;2022-09-20T00:22:19;13.20;99.90
5492;DHT22;2768;53.540;10.224;2022-09-20T00:28:13;13.20;99.90
5492;DHT22;2768;53.540;10.224;2022-09-20T00:34:08;13.20;99.90
5492;DHT22;2768;53.540;10.224;2022-09-20T00:40:21;13.10;99.90
5492;DHT22;2768;53.540;10.224;2022-09-20T00:46:21;13.10;99.90
5492;DHT22;2768;53.540;10.224;2022-09-20T00:52:17;13.00;99.90
5492;DHT22;2768;53.540;10.224;2022-09-20T00:58:10;13.00;99.90
5492;DHT22;2768;53.540;10.224;2022-09-20T01:04:04;13.10;99.90
5492;DHT22;2768;53.540;10.224;2022-09-20T01:09:59;13.00;99.90
5492;DHT22;2768;53.540;10.224;2022-09-20T01:15:52;13.00;99.90
5492;DHT22;2768;53.540;10.224;2022-09-20T01:21:46;13.00;99.90
5492;DHT22;2768;53.540;10.224;2022-09-20T01:27:43;13.00;99.90
5492;DHT22;2768;53.540;10.224;2022-09-20T01:33:42;12.90;99.90
5492;DHT22;2768;53.540;10.224;2022-09-20T01:39:43;12.90;99.90
5492;DHT22;2768;53.540;10.224;2022-09-20T01:45:45;12.90;99.90
5492;DHT22;2768;53.540;10.224;2022-09-20T01:58:41;12.80;99.90
5492;DHT22;2768;53.540;10.224;2022-09-20T02:05:11;12.70;99.90
5492;DHT22;2768;53.540;10.224;2022-09-20T02:11:10;12.80;99.90
5492;DHT22;2768;53.540;10.224;2022-09-20T02:17:10;12.70;99.90
5492;DHT22;2768;53.540;10.224;2022-09-20T02:23:15;12.70;99.90
5492;DHT22;2768;53.540;10.224;2022-09-20T02:29:27;12.70;99.90
5492;DHT22;2768;53.540;10.224;2022-09-20T02:35:32;12.70;99.90
5492;DHT22;2768;53.540;10.224;2022-09-20T02:41:54;12.60;99.90
5492;DHT22;2768;53.540;10.224;2022-09-20T02:47:52;12.30;99.90
5492;DHT22;2768;53.540;10.224;2022-09-20T02:53:57;12.30;99.90
5492;DHT22;2768;53.540;10.224;2022-09-20T02:59:59;12.30;99.90
5492;DHT22;2768;53.540;10.224;2022-09-20T03:06:00;12.30;99.90
5492;DHT22;2768;53.540;10.224;2022-09-20T03:12:03;12.40;99.90
5492;DHT22;2768;53.540;10.224;2022-09-20T03:18:06;12.40;99.90
5492;DHT22;2768;53.540;10.224;2022-09-20T03:24:07;12.40;99.90
5492;DHT22;2768;53.540;10.224;2022-09-20T03:30:19;12.40;99.90
5492;DHT22;2768;53.540;10.224;2022-09-20T03:36:39;12.30;99.90
5492;DHT22;2768;53.540;10.224;2022-09-20T03:42:40;12.30;99.90
5492;DHT22;2768;53.540;10.224;2022-09-20T03:49:14;12.30;99.90
5492;DHT22;2768;53.540;10.224;2022-09-20T03:55:32;12.20;99.90
5492;DHT22;2768;53.540;10.224;2022-09-20T04:01:42;12.20;99.90
5492;DHT22;2768;53.540;10.224;2022-09-20T04:07:54;12.20;99.90
5492;DHT22;2768;53.540;10.224;2022-09-20T04:13:57;12.30;99.90
5492;DHT22;2768;53.540;10.224;2022-09-20T04:20:04;12.30;99.90
5492;DHT22;2768;53.540;10.224;2022-09-20T04:26:00;12.20;99.90
5492;DHT22;2768;53.540;10.224;2022-09-20T04:32:00;12.20;99.90
5492;DHT22;2768;53.540;10.224;2022-09-20T04:37:55;12.20;99.90
5492;DHT22;2768;53.540;10.224;2022-09-20T04:44:12;12.20;99.90
5492;DHT22;2768;53.540;10.224;2022-09-20T04:50:37;12.10;99.90
5492;DHT22;2768;53.540;10.224;2022-09-20T04:56:48;12.10;99.90
5492;DHT22;2768;53.540;10.224;2022-09-20T05:09:37;12.00;99.90
5492;DHT22;2768;53.540;10.224;2022-09-20T05:15:39;12.00;99.90
5492;DHT22;2768;53.540;10.224;2022-09-20T05:21:57;11.90;99.90
5492;DHT22;2768;53.540;10.224;2022-09-20T05:27:56;11.80;99.90
5492;DHT22;2768;53.540;10.224;2022-09-20T05:33:55;11.80;99.90
5492;DHT22;2768;53.540;10.224;2022-09-20T05:39:53;11.80;99.90
5492;DHT22;2768;53.540;10.224;2022-09-20T05:46:02;11.80;99.90
5492;DHT22;2768;53.540;10.224;2022-09-20T05:52:13;11.80;99.90
5492;DHT22;2768;53.540;10.224;2022-09-20T05:58:21;11.80;99.90
5492;DHT22;2768;53.540;10.224;2022-09-20T06:04:22;11.90;99.90
5492;DHT22;2768;53.540;10.224;2022-09-20T06:10:31;11.90;99.90
5492;DHT22;2768;53.540;10.224;2022-09-20T06:16:34;11.70;99.90
5492;DHT22;2768;53.540;10.224;2022-09-20T06:22:35;11.60;99.90
5492;DHT22;2768;53.540;10.224;2022-09-20T06:28:33;11.60;99.90
5492;DHT22;2768;53.540;10.224;2022-09-20T06:34:27;11.60;99.90
5492;DHT22;2768;53.540;10.224;2022-09-20T06:40:32;11.60;99.90
5492;DHT22;2768;53.540;10.224;2022-09-20T06:46:45;11.60;99.90
5492;DHT22;2768;53.540;10.224;2022-09-20T06:52:41;11.70;99.90
5492;DHT22;2768;53.540;10.224;2022-09-20T06:58:37;11.80;99.90
5492;DHT22;2768;53.540;10.224;2022-09-20T07:04:30;11.80;99.90
5492;DHT22;2768;53.540;10.224;2022-09-20T07:10:24;11.90;99.90
5492;DHT22;2768;53.540;10.224;2022-09-20T07:16:20;12.00;99.90
5492;DHT22;2768;53.540;10.224;2022-09-20T07:22:14;12.10;99.90
5492;DHT22;2768;53.540;10.224;2022-09-20T07:28:07;12.20;99.90
5492;DHT22;2768;53.540;10.224;2022-09-20T07:34:01;12.20;99.90
5492;DHT22;2768;53.540;10.224;2022-09-20T07:39:55;12.30;99.90
5492;DHT22;2768;53.540;10.224;2022-09-20T07:45:49;12.40;99.90
5492;DHT22;2768;53.540;10.224;2022-09-20T07:51:45;12.40;99.90
5492;DHT22;2768;53.540;10.224;2022-09-20T07:57:38;12.50;99.90
5492;DHT22;2768;53.540;10.224;2022-09-20T08:03:33;12.60;99.90
5492;DHT22;2768;53.540;10.224;2022-09-20T08:09:27;12.70;99.90
5492;DHT22;2768;53.540;10.224;2022-09-20T08:15:22;12.70;99.90
5492;DHT22;2768;53.540;10.224;2022-09-20T08:21:17;12.70;99.90
5492;DHT22;2768;53.540;10.224;2022-09-20T08:27:12;12.80;99.90
5492;DHT22;2768;53.540;10.224;2022-09-20T08:33:05;12.80;99.90
5492;DHT22;2768;53.540;10.224;2022-09-20T08:39:00;12.90;99.90
5492;DHT22;2768;53.540;10.224;2022-09-20T08:45:17;12.90;99.90
5492;DHT22;2768;53.540;10.224;2022-09-20T08:51:28;13.00;99.90
5492;DHT22;2768;53.540;10.224;2022-09-20T08:57:25;13.10;99.90
5492;DHT22;2768;53.540;10.224;2022-09-20T09:03:21;13.20;99.90
5492;DHT22;2768;53.540;10.224;2022-09-20T09:09:18;13.20;99.90
5492;DHT22;2768;53.540;10.224;2022-09-20T09:15:20;13.20;99.90
5492;DHT22;2768;53.540;10.224;2022-09-20T09:21:19;13.30;99.90
5492;DHT22;2768;53.540;10.224;2022-09-20T09:27:15;13.30;99.90
5492;DHT22;2768;53.540;10.224;2022-09-20T09:33:18;13.40;99.90
5492;DHT22;2768;53.540;10.224;2022-09-20T09:39:15;13.50;99.90
5492;DHT22;2768;53.540;10.224;2022-09-20T09:45:26;13.60;99.90
5492;DHT22;2768;53.540;10.224;2022-09-20T09:51:20;13.60;99.90
5492;DHT22;2768;53.540;10.224;2022-09-20T09:57:30;13.80;99.90
5492;DHT22;2768;53.540;10.224;2022-09-20T10:03:34;14.00;99.90
5492;DHT22;2768;53.540;10.224;2022-09-20T10:09:43;14.10;99.90
5492;DHT22;2768;53.540;10.224;2022-09-20T10:15:44;14.30;99.90
5492;DHT22;2768;53.540;10.224;2022-09-20T10:21:48;14.40;99.90
5492;DHT22;2768;53.540;10.224;2022-09-20T10:27:55;14.70;99.90
5492;DHT22;2768;53.540;10.224;2022-09-20T10:34:04;15.00;99.90
5492;DHT22;2768;53.540;10.224;2022-09-20T10:40:05;15.20;99.90
5492;DHT22;2768;53.540;10.224;2022-09-20T10:46:09;15.40;99.90
5492;DHT22;2768;53.540;10.224;2022-09-20T10:58:56;16.50;97.10
5492;DHT22;2768;53.540;10.224;2022-09-20T11:11:19;16.60;68.10
5492;DHT22;2768;53.540;10.224;2022-09-20T11:17:16;17.40;48.90
5492;DHT22;2768;53.540;10.224;2022-09-20T11:23:14;17.70;21.90
5492;DHT22;2768;53.540;10.224;2022-09-20T11:29:17;17.90;19.00
5492;DHT22;2768;53.540;10.224;2022-09-20T11:35:27;18.30;26.60
5492;DHT22;2768;53.540;10.224;2022-09-20T11:41:25;18.40;20.70
5492;DHT22;2768;53.540;10.224;2022-09-20T11:47:22;18.90;5.90
5492;DHT22;2768;53.540;10.224;2022-09-20T11:53:54;19.00;1.00
5492;DHT22;2768;53.540;10.224;2022-09-20T11:59:51;19.30;1.00
5492;DHT22;2768;53.540;10.224;2022-09-20T12:05:55;19.40;1.00
5492;DHT22;2768;53.540;10.224;2022-09-20T12:11:49;19.50;1.00
5492;DHT22;2768;53.540;10.224;2022-09-20T12:18:26;19.70;1.00
5492;DHT22;2768;53.540;10.224;2022-09-20T12:24:21;20.10;1.00
5492;DHT22;2768;53.540;10.224;2022-09-20T12:30:16;20.30;1.00
5492;DHT22;2768;53.540;10.224;2022-09-20T12:36:15;20.50;1.00
5492;DHT22;2768;53.540;10.224;2022-09-20T12:42:26;20.40;1.00
5492;DHT22;2768;53.540;10.224;2022-09-20T12:48:19;20.70;1.00
5492;DHT22;2768;53.540;10.224;2022-09-20T12:54:13;21.10;1.00
5492;DHT22;2768;53.540;10.224;2022-09-20T13:00:29;21.20;1.00
5492;DHT22;2768;53.540;10.224;2022-09-20T13:06:29;21.40;1.00
5492;DHT22;2768;53.540;10.224;2022-09-20T13:12:21;21.50;1.00
5492;DHT22;2768;53.540;10.224;2022-09-20T13:18:17;21.20;1.00
5492;DHT22;2768;53.540;10.224;2022-09-20T13:24:15;20.80;1.00
5492;DHT22;2768;53.540;10.224;2022-09-20T13:30:16;20.80;1.00
5492;DHT22;2768;53.540;10.224;2022-09-20T13:36:11;20.90;1.00
5492;DHT22;2768;53.540;10.224;2022-09-20T13:42:08;21.20;1.00
5492;DHT22;2768;53.540;10.224;2022-09-20T13:48:02;21.30;1.00
5492;DHT22;2768;53.540;10.224;2022-09-20T13:54:17;21.70;1.00
5492;DHT22;2768;53.540;10.224;2022-09-20T14:00:13;21.90;1.00
5492;DHT22;2768;53.540;10.224;2022-09-20T14:06:11;21.70;1.00
5492;DHT22;2768;53.540;10.224;2022-09-20T14:12:09;21.70;1.00
5492;DHT22;2768;53.540;10.224;2022-09-20T14:18:05;21.90;1.00
5492;DHT22;2768;53.540;10.224;2022-09-20T14:24:02;22.10;1.00
5492;DHT22;2768;53.540;10.224;2022-09-20T14:29:58;22.50;1.00
5492;DHT22;2768;53.540;10.224;2022-09-20T14:35:53;22.50;1.00
5492;DHT22;2768;53.540;10.224;2022-09-20T14:41:46;22.40;1.00
5492;DHT22;2768;53.540;10.224;2022-09-20T14:47:53;22.20;1.00
5492;DHT22;2768;53.540;10.224;2022-09-20T14:53:49;22.00;1.00
5492;DHT22;2768;53.540;10.224;2022-09-20T14:59:42;21.70;1.00
5492;DHT22;2768;53.540;10.224;2022-09-20T15:05:37;21.50;1.00
5492;DHT22;2768;53.540;10.224;2022-09-20T15:11:30;21.40;1.00
5492;DHT22;2768;53.540;10.224;2022-09-20T15:17:24;21.40;1.00
5492;DHT22;2768;53.540;10.224;2022-09-20T15:23:18;21.30;1.00
5492;DHT22;2768;53.540;10.224;2022-09-20T15:29:14;21.00;1.00
5492;DHT22;2768;53.540;10.224;2022-09-20T15:35:08;20.80;1.00
5492;DHT22;2768;53.540;10.224;2022-09-20T15:41:03;20.70;1.00
5492;DHT22;2768;53.540;10.224;2022-09-20T15:46:57;20.70;1.00
5492;DHT22;2768;53.540;10.224;2022-09-20T15:52:50;20.60;1.00
5492;DHT22;2768;53.540;10.224;2022-09-20T15:58:52;20.50;1.00
5492;DHT22;2768;53.540;10.224;2022-09-20T16:04:50;20.30;1.00
5492;DHT22;2768;53.540;10.224;2022-09-20T16:10:55;20.20;1.00
5492;DHT22;2768;53.540;10.224;2022-09-20T16:16:49;20.00;1.00
5492;DHT22;2768;53.540;10.224;2022-09-20T16:22:43;19.90;1.00
5492;DHT22;2768;53.540;10.224;2022-09-20T16:28:37;19.80;1.00
5492;DHT22;2768;53.540;10.224;2022-09-20T16:34:39;19.70;1.00
5492;DHT22;2768;53.540;10.224;2022-09-20T16:40:32;19.60;1.00
5492;DHT22;2768;53.540;10.224;2022-09-20T16:46:26;19.50;1.00
5492;DHT22;2768;53.540;10.224;2022-09-20T16:52:20;19.30;1.00
5492;DHT22;2768;53.540;10.224;2022-09-20T16:58:13;19.30;1.00
5492;DHT22;2768;53.540;10.224;2022-09-20T17:04:07;19.30;1.00
5492;DHT22;2768;53.540;10.224;2022-09-20T17:10:01;19.20;1.00
5492;DHT22;2768;53.540;10.224;2022-09-20T17:15:59;19.00;1.00
5492;DHT22;2768;53.540;10.224;2022-09-20T17:21:53;18.90;1.00
5492;DHT22;2768;53.540;10.224;2022-09-20T17:27:47;18.80;1.00
5492;DHT22;2768;53.540;10.224;2022-09-20T17:33:42;18.60;1.00
5492;DHT22;2768;53.540;10.224;2022-09-20T17:39:36;18.50;1.00
5492;DHT22;2768;53.540;10.224;2022-09-20T17:45:32;18.40;1.00
5492;DHT22;2768;53.540;10.224;2022-09-20T17:51:27;18.30;1.00
5492;DHT22;2768;53.540;10.224;2022-09-20T17:57:20;18.20;1.00
5492;DHT22;2768;53.540;10.224;2022-09-20T18:03:15;18.10;1.00
5492;DHT22;2768;53.540;10.224;2022-09-20T18:09:11;18.00;1.00
5492;DHT22;2768;53.540;10.224;2022-09-20T18:15:07;17.90;1.00
5492;DHT22;2768;53.540;10.224;2022-09-20T18:21:08;17.80;1.00
5492;DHT22;2768;53.540;10.224;2022-09-20T18:27:01;17.70;1.00
5492;DHT22;2768;53.540;10.224;2022-09-20T18:32:55;17.60;1.00
5492;DHT22;2768;53.540;10.224;2022-09-20T18:38:50;17.60;1.00
5492;DHT22;2768;53.540;10.224;2022-09-20T18:44:45;17.50;1.00
5492;DHT22;2768;53.540;10.224;2022-09-20T18:50:40;17.40;1.00
5492;DHT22;2768;53.540;10.224;2022-09-20T18:56:36;17.30;1.00
5492;DHT22;2768;53.540;10.224;2022-09-20T19:02:42;17.30;1.00
5492;DHT22;2768;53.540;10.224;2022-09-20T19:08:43;17.20;1.00
5492;DHT22;2768;53.540;10.224;2022-09-20T19:14:53;17.10;1.00
5492;DHT22;2768;53.540;10.224;2022-09-20T19:20:53;17.00;1.00
5492;DHT22;2768;53.540;10.224;2022-09-20T19:26:48;17.00;1.00
5492;DHT22;2768;53.540;10.224;2022-09-20T19:32:43;16.90;1.00
5492;DHT22;2768;53.540;10.224;2022-09-20T19:38:42;16.90;1.00
5492;DHT22;2768;53.540;10.224;2022-09-20T19:44:44;16.80;1.00
5492;DHT22;2768;53.540;10.224;2022-09-20T19:50:41;16.70;1.00
5492;DHT22;2768;53.540;10.224;2022-09-20T19:56:44;16.70;1.00
5492;DHT22;2768;53.540;10.224;2022-09-20T20:02:39;16.60;1.00
5492;DHT22;2768;53.540;10.224;2022-09-20T20:08:38;16.50;1.00
5492;DHT22;2768;53.540;10.224;2022-09-20T20:14:37;16.50;1.00
5492;DHT22;2768;53.540;10.224;2022-09-20T20:20:38;16.40;1.00
5492;DHT22;2768;53.540;10.224;2022-09-20T20:26:34;16.40;1.00
5492;DHT22;2768;53.540;10.224;2022-09-20T20:32:27;16.30;1.00
5492;DHT22;2768;53.540;10.224;2022-09-20T20:38:21;16.20;1.00
5492;DHT22;2768;53.540;10.224;2022-09-20T20:44:18;16.20;1.00
5492;DHT22;2768;53.540;10.224;2022-09-20T20:50:13;16.20;1.00
5492;DHT22;2768;53.540;10.224;2022-09-20T20:56:07;16.10;1.00
5492;DHT22;2768;53.540;10.224;2022-09-20T21:02:02;16.00;1.00
5492;DHT22;2768;53.540;10.224;2022-09-20T21:07:58;16.00;1.00
5492;DHT22;2768;53.540;10.224;2022-09-20T21:13:52;15.90;1.00
5492;DHT22;2768;53.540;10.224;2022-09-20T21:19:47;15.90;1.00
5492;DHT22;2768;53.540;10.224;2022-09-20T21:25:41;15.80;1.00
5492;DHT22;2768;53.540;10.224;2022-09-20T21:31:35;15.80;1.00
5492;DHT22;2768;53.540;10.224;2022-09-20T21:37:30;15.70;1.00
5492;DHT22;2768;53.540;10.224;2022-09-20T21:43:23;15.70;1.00
5492;DHT22;2768;53.540;10.224;2022-09-20T21:49:17;15.60;1.00
5492;DHT22;2768;53.540;10.224;2022-09-20T21:55:12;15.60;1.00
5492;DHT22;2768;53.540;10.224;2022-09-20T22:01:07;15.50;1.00
5492;DHT22;2768;53.540;10.224;2022-09-20T22:07:02;15.50;1.00
5492;DHT22;2768;53.540;10.224;2022-09-20T22:12:57;15.40;1.00
5492;DHT22;2768;53.540;10.224;2022-09-20T22:18:50;15.40;1.00
5492;DHT22;2768;53.540;10.224;2022-09-20T22:24:44;15.30;1.00
5492;DHT22;2768;53.540;10.224;2022-09-20T22:30:39;15.30;1.00
5492;DHT22;2768;53.540;10.224;2022-09-20T22:36:33;15.20;1.00
5492;DHT22;2768;53.540;10.224;2022-09-20T22:42:27;14.90;1.00
5492;DHT22;2768;53.540;10.224;2022-09-20T22:48:21;14.90;1.00
5492;DHT22;2768;53.540;10.224;2022-09-20T22:54:15;14.90;1.00
5492;DHT22;2768;53.540;10.224;2022-09-20T23:00:09;14.90;1.00
5492;DHT22;2768;53.540;10.224;2022-09-20T23:06:10;14.90;1.00
5492;DHT22;2768;53.540;10.224;2022-09-20T23:12:04;14.90;1.00
5492;DHT22;2768;53.540;10.224;2022-09-20T23:17:57;14.90;1.00
5492;DHT22;2768;53.540;10.224;2022-09-20T23:23:53;14.80;1.00
5492;DHT22;2768;53.540;10.224;2022-09-20T23:29:47;14.80;1.00
5492;DHT22;2768;53.540;10.224;2022-09-20T23:35:43;14.70;1.00
5492;DHT22;2768;53.540;10.224;2022-09-20T23:41:38;14.60;1.00
5492;DHT22;2768;53.540;10.224;2022-09-20T23:47:32;14.50;1.00
5492;DHT22;2768;53.540;10.224;2022-09-20T23:53:26;14.50;1.00
5492;DHT22;2768;53.540;10.224;2022-09-20T23:59:20;14.50;1.00
